sensor_id;sensor_type;location;lat;lon;timestamp;pressure;altitude;pressure_sealevel;temperature;humidity
61554;BME280;47425;51.976;5.326;2023-02-15T00:01:33;102777.88;;;10.57;54.03
61554;BME280;47425;51.976;5.326;2023-02-15T00:04:02;102777.53;;;11.11;54.41
61554;BME280;47425;51.976;5.326;2023-02-15T00:06:31;102779.66;;;11.63;54.30
61554;BME280;47425;51.976;5.326;2023-02-15T00:09:01;102776.44;;;12.12;53.53
61554;BME280;47425;51.976;5.326;2023-02-15T00:11:32;102766.97;;;12.59;53.01
61554;BME280;47425;51.976;5.326;2023-02-15T00:14:16;102759.13;;;13.01;52.07
61554;BME280;47425;51.976;5.326;2023-02-15T00:16:47;102767.88;;;13.26;51.70
61554;BME280;47425;51.976;5.326;2023-02-15T00:19:26;102763.50;;;13.37;50.33
61554;BME280;47425;51.976;5.326;2023-02-15T00:22:01;102766.13;;;13.30;49.83
61554;BME280;47425;51.976;5.326;2023-02-15T00:24:30;102767.00;;;13.33;50.03
61554;BME280;47425;51.976;5.326;2023-02-15T00:27:13;102765.28;;;13.43;50.04
61554;BME280;47425;51.976;5.326;2023-02-15T00:29:46;102762.63;;;13.46;49.65
61554;BME280;47425;51.976;5.326;2023-02-15T00:32:12;102768.75;;;13.33;48.82
61554;BME280;47425;51.976;5.326;2023-02-15T00:34:41;102760.00;;;12.87;47.41
61554;BME280;47425;51.976;5.326;2023-02-15T00:37:09;102764.31;;;12.50;48.14
61554;BME280;47425;51.976;5.326;2023-02-15T00:39:50;102766.88;;;12.31;49.41
61554;BME280;47425;51.976;5.326;2023-02-15T00:42:23;102756.41;;;12.48;50.51
61554;BME280;47425;51.976;5.326;2023-02-15T00:44:51;102758.22;;;12.75;50.76
61554;BME280;47425;51.976;5.326;2023-02-15T00:47:17;102749.47;;;12.86;50.37
61554;BME280;47425;51.976;5.326;2023-02-15T00:49:43;102748.59;;;12.87;49.76
61554;BME280;47425;51.976;5.326;2023-02-15T00:52:22;102743.31;;;12.81;49.78
61554;BME280;47425;51.976;5.326;2023-02-15T00:54:54;102744.22;;;12.83;49.91
61554;BME280;47425;51.976;5.326;2023-02-15T00:57:47;102748.59;;;12.79;49.26
61554;BME280;47425;51.976;5.326;2023-02-15T01:00:20;102747.72;;;12.79;49.89
61554;BME280;47425;51.976;5.326;2023-02-15T01:02:51;102743.34;;;12.76;49.14
61554;BME280;47425;51.976;5.326;2023-02-15T01:05:34;102748.53;;;12.51;48.61
61554;BME280;47425;51.976;5.326;2023-02-15T01:08:24;102738.91;;;12.47;49.45
61554;BME280;47425;51.976;5.326;2023-02-15T01:10:53;102745.94;;;12.56;50.15
61554;BME280;47425;51.976;5.326;2023-02-15T01:13:41;102745.94;;;12.62;49.48
61554;BME280;47425;51.976;5.326;2023-02-15T01:16:33;102738.03;;;12.53;49.60
61554;BME280;47425;51.976;5.326;2023-02-15T01:18:59;102736.28;;;12.59;49.48
61554;BME280;47425;51.976;5.326;2023-02-15T01:21:27;102720.53;;;12.55;49.16
61554;BME280;47425;51.976;5.326;2023-02-15T01:23:55;102721.38;;;12.38;49.49
61554;BME280;47425;51.976;5.326;2023-02-15T01:26:31;102715.25;;;12.49;49.85
61554;BME280;47425;51.976;5.326;2023-02-15T01:29:11;102715.28;;;12.63;49.77
61554;BME280;47425;51.976;5.326;2023-02-15T01:31:59;102725.69;;;12.13;47.26
61554;BME280;47425;51.976;5.326;2023-02-15T01:34:27;102717.50;;;11.53;47.57
61554;BME280;47425;51.976;5.326;2023-02-15T01:39:48;102718.69;;;10.78;47.96
61554;BME280;47425;51.976;5.326;2023-02-15T01:42:40;102718.13;;;10.22;48.43
61554;BME280;47425;51.976;5.326;2023-02-15T01:45:22;102710.25;;;10.21;50.78
61554;BME280;47425;51.976;5.326;2023-02-15T01:47:54;102707.13;;;10.53;51.25
61554;BME280;47425;51.976;5.326;2023-02-15T01:50:37;102702.94;;;10.73;50.44
61554;BME280;47425;51.976;5.326;2023-02-15T01:53:08;102703.03;;;10.87;51.16
61554;BME280;47425;51.976;5.326;2023-02-15T01:58:15;102710.63;;;11.78;52.11
61554;BME280;47425;51.976;5.326;2023-02-15T02:03:41;102693.25;;;12.06;50.07
61554;BME280;47425;51.976;5.326;2023-02-15T02:09:02;102685.44;;;12.27;49.97
61554;BME280;47425;51.976;5.326;2023-02-15T02:11:42;102685.44;;;12.25;49.87
61554;BME280;47425;51.976;5.326;2023-02-15T02:14:27;102690.63;;;12.08;48.87
61554;BME280;47425;51.976;5.326;2023-02-15T02:17:04;102681.88;;;11.97;50.08
61554;BME280;47425;51.976;5.326;2023-02-15T02:20:12;102678.44;;;12.22;51.14
61554;BME280;47425;51.976;5.326;2023-02-15T02:25:36;102667.06;;;12.37;49.01
61554;BME280;47425;51.976;5.326;2023-02-15T02:28:29;102669.63;;;12.11;49.61
61554;BME280;47425;51.976;5.326;2023-02-15T02:31:19;102668.81;;;12.26;50.29
61554;BME280;47425;51.976;5.326;2023-02-15T02:34:05;102663.56;;;12.28;49.35
61554;BME280;47425;51.976;5.326;2023-02-15T02:36:40;102653.91;;;12.30;50.51
61554;BME280;47425;51.976;5.326;2023-02-15T02:39:28;102655.69;;;12.60;50.75
61554;BME280;47425;51.976;5.326;2023-02-15T02:42:00;102653.94;;;12.85;50.66
61554;BME280;47425;51.976;5.326;2023-02-15T02:44:38;102653.91;;;13.12;50.29
61554;BME280;47425;51.976;5.326;2023-02-15T02:47:16;102653.00;;;13.30;50.15
61554;BME280;47425;51.976;5.326;2023-02-15T02:49:51;102655.59;;;13.43;49.82
61554;BME280;47425;51.976;5.326;2023-02-15T02:52:36;102647.66;;;13.59;49.82
61554;BME280;47425;51.976;5.326;2023-02-15T02:55:17;102643.25;;;13.67;49.31
61554;BME280;47425;51.976;5.326;2023-02-15T03:01:09;102638.78;;;13.79;48.35
61554;BME280;47425;51.976;5.326;2023-02-15T03:04:45;102636.19;;;13.69;48.64
61554;BME280;47425;51.976;5.326;2023-02-15T03:06:44;102639.78;;;13.53;48.25
61554;BME280;47425;51.976;5.326;2023-02-15T03:09:31;102626.66;;;13.34;47.85
61554;BME280;47425;51.976;5.326;2023-02-15T03:12:11;102624.97;;;13.10;48.34
61554;BME280;47425;51.976;5.326;2023-02-15T03:14:48;102627.59;;;13.08;49.05
61554;BME280;47425;51.976;5.326;2023-02-15T03:17:27;102626.69;;;13.16;49.42
61554;BME280;47425;51.976;5.326;2023-02-15T03:20:06;102619.66;;;13.24;49.19
61554;BME280;47425;51.976;5.326;2023-02-15T03:22:44;102619.63;;;13.32;49.35
61554;BME280;47425;51.976;5.326;2023-02-15T03:25:46;102617.88;;;13.45;49.26
61554;BME280;47425;51.976;5.326;2023-02-15T03:28:31;102618.69;;;13.62;49.61
61554;BME280;47425;51.976;5.326;2023-02-15T03:31:07;102615.13;;;13.71;49.45
61554;BME280;47425;51.976;5.326;2023-02-15T03:33:49;102602.78;;;13.82;48.91
61554;BME280;47425;51.976;5.326;2023-02-15T03:36:22;102603.63;;;13.87;49.14
61554;BME280;47425;51.976;5.326;2023-02-15T03:38:56;102603.50;;;14.07;48.55
61554;BME280;47425;51.976;5.326;2023-02-15T03:41:26;102601.63;;;14.26;48.35
61554;BME280;47425;51.976;5.326;2023-02-15T03:44:00;102604.09;;;14.45;47.96
61554;BME280;47425;51.976;5.326;2023-02-15T03:46:31;102608.38;;;14.58;47.84
61554;BME280;47425;51.976;5.326;2023-02-15T03:49:00;102611.00;;;14.57;47.50
61554;BME280;47425;51.976;5.326;2023-02-15T03:51:29;102609.38;;;14.47;47.42
61554;BME280;47425;51.976;5.326;2023-02-15T03:54:12;102604.09;;;14.42;47.35
61554;BME280;47425;51.976;5.326;2023-02-15T03:57:16;102600.59;;;14.43;47.85
61554;BME280;47425;51.976;5.326;2023-02-15T04:00:00;102601.38;;;14.56;47.39
61554;BME280;47425;51.976;5.326;2023-02-15T04:02:54;102594.31;;;14.61;46.89
61554;BME280;47425;51.976;5.326;2023-02-15T04:05:24;102596.97;;;14.56;46.86
61554;BME280;47425;51.976;5.326;2023-02-15T04:07:59;102596.09;;;14.53;47.17
61554;BME280;47425;51.976;5.326;2023-02-15T04:10:28;102591.75;;;14.50;47.05
61554;BME280;47425;51.976;5.326;2023-02-15T04:13:29;102590.81;;;14.57;47.41
61554;BME280;47425;51.976;5.326;2023-02-15T04:16:06;102593.47;;;14.56;46.82
61554;BME280;47425;51.976;5.326;2023-02-15T04:18:46;102599.78;;;14.36;46.52
61554;BME280;47425;51.976;5.326;2023-02-15T04:24:31;102590.38;;;14.00;47.09
61554;BME280;47425;51.976;5.326;2023-02-15T04:27:29;102593.78;;;14.13;47.64
61554;BME280;47425;51.976;5.326;2023-02-15T04:30:08;102585.00;;;14.18;47.63
61554;BME280;47425;51.976;5.326;2023-02-15T04:32:56;102589.31;;;14.27;47.81
61554;BME280;47425;51.976;5.326;2023-02-15T04:35:29;102583.88;;;14.46;47.68
61554;BME280;47425;51.976;5.326;2023-02-15T04:38:00;102572.41;;;14.51;47.32
61554;BME280;47425;51.976;5.326;2023-02-15T04:40:29;102580.25;;;14.59;47.25
61554;BME280;47425;51.976;5.326;2023-02-15T04:42:58;102583.75;;;14.63;46.66
61554;BME280;47425;51.976;5.326;2023-02-15T04:45:27;102579.31;;;14.66;46.47
61554;BME280;47425;51.976;5.326;2023-02-15T04:47:57;102577.84;;;14.34;45.61
61554;BME280;47425;51.976;5.326;2023-02-15T04:53:07;102572.81;;;14.00;47.27
61554;BME280;47425;51.976;5.326;2023-02-15T04:55:44;102572.78;;;14.06;47.00
61554;BME280;47425;51.976;5.326;2023-02-15T04:58:37;102569.28;;;14.03;46.68
61554;BME280;47425;51.976;5.326;2023-02-15T05:01:06;102566.72;;;13.92;46.68
61554;BME280;47425;51.976;5.326;2023-02-15T05:06:24;102566.00;;;13.70;47.50
61554;BME280;47425;51.976;5.326;2023-02-15T05:09:00;102558.97;;;13.70;47.38
61554;BME280;47425;51.976;5.326;2023-02-15T05:11:31;102559.06;;;13.56;46.79
61554;BME280;47425;51.976;5.326;2023-02-15T05:13:59;102554.72;;;13.35;46.53
61554;BME280;47425;51.976;5.326;2023-02-15T05:16:27;102549.50;;;13.26;47.14
61554;BME280;47425;51.976;5.326;2023-02-15T05:19:03;102553.00;;;13.36;48.21
61554;BME280;47425;51.976;5.326;2023-02-15T05:21:38;102550.31;;;13.50;48.01
61554;BME280;47425;51.976;5.326;2023-02-15T05:24:09;102547.63;;;13.61;48.15
61554;BME280;47425;51.976;5.326;2023-02-15T05:26:53;102554.53;;;13.79;47.96
61554;BME280;47425;51.976;5.326;2023-02-15T05:29:42;102558.09;;;13.67;47.60
61554;BME280;47425;51.976;5.326;2023-02-15T05:32:39;102559.00;;;13.63;48.06
61554;BME280;47425;51.976;5.326;2023-02-15T05:35:11;102554.63;;;13.58;47.37
61554;BME280;47425;51.976;5.326;2023-02-15T05:37:43;102550.31;;;13.47;47.95
61554;BME280;47425;51.976;5.326;2023-02-15T05:40:11;102551.13;;;13.59;48.30
61554;BME280;47425;51.976;5.326;2023-02-15T05:42:41;102561.53;;;13.80;48.36
61554;BME280;47425;51.976;5.326;2023-02-15T05:45:18;102554.38;;;13.99;48.16
61554;BME280;47425;51.976;5.326;2023-02-15T05:47:45;102557.75;;;14.21;47.87
61554;BME280;47425;51.976;5.326;2023-02-15T05:50:17;102555.84;;;14.35;47.43
61554;BME280;47425;51.976;5.326;2023-02-15T05:52:51;102561.00;;;14.49;47.23
61554;BME280;47425;51.976;5.326;2023-02-15T05:55:20;102560.25;;;14.35;46.92
61554;BME280;47425;51.976;5.326;2023-02-15T05:57:46;102554.28;;;14.16;45.82
61554;BME280;47425;51.976;5.326;2023-02-15T06:00:24;102546.56;;;13.86;46.41
61554;BME280;47425;51.976;5.326;2023-02-15T06:03:03;102551.06;;;13.69;47.11
61554;BME280;47425;51.976;5.326;2023-02-15T06:08:18;102545.03;;;13.51;47.12
61554;BME280;47425;51.976;5.326;2023-02-15T06:10:59;102558.25;;;13.42;47.26
61554;BME280;47425;51.976;5.326;2023-02-15T06:13:29;102548.53;;;13.53;47.83
61554;BME280;47425;51.976;5.326;2023-02-15T06:15:58;102552.00;;;13.60;47.90
61554;BME280;47425;51.976;5.326;2023-02-15T06:18:48;102541.53;;;13.52;47.91
61554;BME280;47425;51.976;5.326;2023-02-15T06:21:17;102542.41;;;13.51;48.17
61554;BME280;47425;51.976;5.326;2023-02-15T06:23:50;102538.81;;;13.65;48.30
61554;BME280;47425;51.976;5.326;2023-02-15T06:26:23;102540.50;;;13.76;48.81
61554;BME280;47425;51.976;5.326;2023-02-15T06:29:20;102550.00;;;13.96;48.45
61554;BME280;47425;51.976;5.326;2023-02-15T06:31:49;102549.00;;;14.13;48.28
61554;BME280;47425;51.976;5.326;2023-02-15T06:34:19;102546.25;;;14.28;48.17
61554;BME280;47425;51.976;5.326;2023-02-15T06:36:50;102542.66;;;14.40;48.10
61554;BME280;47425;51.976;5.326;2023-02-15T06:39:21;102545.25;;;14.41;47.50
61554;BME280;47425;51.976;5.326;2023-02-15T06:41:53;102545.19;;;14.51;47.76
61554;BME280;47425;51.976;5.326;2023-02-15T06:44:33;102538.97;;;14.55;47.14
61554;BME280;47425;51.976;5.326;2023-02-15T06:47:15;102546.06;;;14.48;47.39
61554;BME280;47425;51.976;5.326;2023-02-15T06:49:54;102543.41;;;14.54;47.26
61554;BME280;47425;51.976;5.326;2023-02-15T06:52:31;102542.44;;;14.60;47.50
61554;BME280;47425;51.976;5.326;2023-02-15T06:55:02;102552.09;;;14.66;46.99
61554;BME280;47425;51.976;5.326;2023-02-15T06:57:37;102548.53;;;14.70;47.19
61554;BME280;47425;51.976;5.326;2023-02-15T07:00:13;102540.53;;;14.77;47.17
61554;BME280;47425;51.976;5.326;2023-02-15T07:02:43;102545.78;;;14.81;47.14
61554;BME280;47425;51.976;5.326;2023-02-15T07:05:15;102538.63;;;14.93;47.12
61554;BME280;47425;51.976;5.326;2023-02-15T07:07:46;102540.22;;;15.04;47.17
61554;BME280;47425;51.976;5.326;2023-02-15T07:10:22;102547.22;;;15.08;46.94
61554;BME280;47425;51.976;5.326;2023-02-15T07:12:55;102549.72;;;15.20;46.96
61554;BME280;47425;51.976;5.326;2023-02-15T07:15:31;102553.16;;;15.27;46.52
61554;BME280;47425;51.976;5.326;2023-02-15T07:18:17;102551.38;;;15.29;45.87
61554;BME280;47425;51.976;5.326;2023-02-15T07:20:59;102549.72;;;15.22;46.05
61554;BME280;47425;51.976;5.326;2023-02-15T07:23:55;102538.22;;;15.26;46.39
61554;BME280;47425;51.976;5.326;2023-02-15T07:26:30;102538.13;;;15.34;46.49
61554;BME280;47425;51.976;5.326;2023-02-15T07:28:59;102529.28;;;15.38;46.12
61554;BME280;47425;51.976;5.326;2023-02-15T07:31:29;102527.50;;;15.37;46.11
61554;BME280;47425;51.976;5.326;2023-02-15T07:37:04;102515.06;;;15.47;46.11
61554;BME280;47425;51.976;5.326;2023-02-15T07:39:46;102510.63;;;15.49;45.88
61554;BME280;47425;51.976;5.326;2023-02-15T07:42:17;102510.66;;;15.47;45.46
61554;BME280;47425;51.976;5.326;2023-02-15T07:44:50;102514.31;;;15.37;45.43
61554;BME280;47425;51.976;5.326;2023-02-15T07:47:21;102515.38;;;15.23;45.79
61554;BME280;47425;51.976;5.326;2023-02-15T07:49:50;102513.63;;;15.22;46.09
61554;BME280;47425;51.976;5.326;2023-02-15T07:52:24;102513.47;;;15.33;46.43
61554;BME280;47425;51.976;5.326;2023-02-15T07:57:58;102504.50;;;15.45;45.87
61554;BME280;47425;51.976;5.326;2023-02-15T08:00:29;102498.34;;;15.46;45.86
61554;BME280;47425;51.976;5.326;2023-02-15T08:03:25;102494.81;;;15.47;45.62
61554;BME280;47425;51.976;5.326;2023-02-15T08:05:55;102493.91;;;15.50;46.01
61554;BME280;47425;51.976;5.326;2023-02-15T08:08:26;102493.75;;;15.59;45.90
61554;BME280;47425;51.976;5.326;2023-02-15T08:10:59;102497.16;;;15.67;45.74
61554;BME280;47425;51.976;5.326;2023-02-15T08:13:48;102489.09;;;15.75;45.58
61554;BME280;47425;51.976;5.326;2023-02-15T08:16:26;102491.81;;;15.70;45.21
61554;BME280;47425;51.976;5.326;2023-02-15T08:18:57;102489.22;;;15.69;45.16
61554;BME280;47425;51.976;5.326;2023-02-15T08:21:27;102492.75;;;15.68;44.88
61554;BME280;47425;51.976;5.326;2023-02-15T08:24:13;102490.22;;;15.60;45.28
61554;BME280;47425;51.976;5.326;2023-02-15T08:26:55;102491.06;;;15.62;45.54
61554;BME280;47425;51.976;5.326;2023-02-15T08:29:31;102490.16;;;15.65;44.73
61554;BME280;47425;51.976;5.326;2023-02-15T08:31:58;102486.84;;;15.50;44.74
61554;BME280;47425;51.976;5.326;2023-02-15T08:34:28;102491.19;;;15.54;45.65
61554;BME280;47425;51.976;5.326;2023-02-15T08:37:17;102480.47;;;15.64;45.57
61554;BME280;47425;51.976;5.326;2023-02-15T08:39:49;102485.66;;;15.71;44.87
61554;BME280;47425;51.976;5.326;2023-02-15T08:42:22;102485.69;;;15.68;45.20
61554;BME280;47425;51.976;5.326;2023-02-15T08:44:49;102475.84;;;15.80;45.38
61554;BME280;47425;51.976;5.326;2023-02-15T08:47:29;102475.72;;;15.89;45.00
61554;BME280;47425;51.976;5.326;2023-02-15T08:49:57;102477.34;;;15.96;44.56
61554;BME280;47425;51.976;5.326;2023-02-15T08:52:25;102478.06;;;16.07;44.40
61554;BME280;47425;51.976;5.326;2023-02-15T08:54:52;102473.63;;;16.08;44.44
61554;BME280;47425;51.976;5.326;2023-02-15T08:57:25;102469.38;;;15.99;44.40
61554;BME280;47425;51.976;5.326;2023-02-15T09:00:24;102478.97;;;16.03;44.38
61554;BME280;47425;51.976;5.326;2023-02-15T09:03:05;102479.75;;;16.12;44.13
61554;BME280;47425;51.976;5.326;2023-02-15T09:05:33;102468.13;;;16.20;44.03
61554;BME280;47425;51.976;5.326;2023-02-15T09:08:17;102474.28;;;16.22;43.70
61554;BME280;47425;51.976;5.326;2023-02-15T09:11:09;102473.34;;;16.23;44.01
61554;BME280;47425;51.976;5.326;2023-02-15T09:13:38;102472.44;;;16.24;43.85
61554;BME280;47425;51.976;5.326;2023-02-15T09:16:11;102466.22;;;16.28;43.59
61554;BME280;47425;51.976;5.326;2023-02-15T09:18:53;102456.44;;;16.34;43.53
61554;BME280;47425;51.976;5.326;2023-02-15T09:21:24;102467.84;;;16.36;43.59
61554;BME280;47425;51.976;5.326;2023-02-15T09:23:55;102464.28;;;16.38;43.37
61554;BME280;47425;51.976;5.326;2023-02-15T09:26:38;102458.88;;;16.44;43.43
61554;BME280;47425;51.976;5.326;2023-02-15T09:29:12;102457.94;;;16.47;43.11
61554;BME280;47425;51.976;5.326;2023-02-15T09:31:49;102454.38;;;16.50;43.15
61554;BME280;47425;51.976;5.326;2023-02-15T09:34:24;102454.28;;;16.53;42.98
61554;BME280;47425;51.976;5.326;2023-02-15T09:37:04;102457.84;;;16.53;42.93
61554;BME280;47425;51.976;5.326;2023-02-15T09:39:39;102456.03;;;16.54;42.90
61554;BME280;47425;51.976;5.326;2023-02-15T09:42:31;102455.00;;;16.61;42.75
61554;BME280;47425;51.976;5.326;2023-02-15T09:45:22;102461.13;;;16.65;42.47
61554;BME280;47425;51.976;5.326;2023-02-15T09:48:12;102456.91;;;16.54;42.70
61554;BME280;47425;51.976;5.326;2023-02-15T09:50:52;102463.13;;;16.53;42.84
61554;BME280;47425;51.976;5.326;2023-02-15T09:53:31;102455.97;;;16.58;42.75
61554;BME280;47425;51.976;5.326;2023-02-15T09:56:06;102459.38;;;16.64;42.60
61554;BME280;47425;51.976;5.326;2023-02-15T09:58:40;102461.97;;;16.67;42.60
61554;BME280;47425;51.976;5.326;2023-02-15T10:01:13;102462.00;;;16.65;42.51
61554;BME280;47425;51.976;5.326;2023-02-15T10:03:50;102465.47;;;16.67;42.58
61554;BME280;47425;51.976;5.326;2023-02-15T10:06:28;102462.78;;;16.69;42.49
61554;BME280;47425;51.976;5.326;2023-02-15T10:09:10;102463.66;;;16.71;42.35
61554;BME280;47425;51.976;5.326;2023-02-15T10:11:43;102464.44;;;16.74;42.39
61554;BME280;47425;51.976;5.326;2023-02-15T10:14:37;102459.09;;;16.77;42.26
61554;BME280;47425;51.976;5.326;2023-02-15T10:17:35;102465.22;;;16.80;42.10
61554;BME280;47425;51.976;5.326;2023-02-15T10:20:13;102458.94;;;16.85;41.86
61554;BME280;47425;51.976;5.326;2023-02-15T10:25:51;102467.00;;;16.79;41.94
61554;BME280;47425;51.976;5.326;2023-02-15T10:28:27;102471.34;;;16.83;41.88
61554;BME280;47425;51.976;5.326;2023-02-15T10:34:09;102473.78;;;16.94;41.81
61554;BME280;47425;51.976;5.326;2023-02-15T10:36:43;102471.03;;;17.00;41.65
61554;BME280;47425;51.976;5.326;2023-02-15T10:39:18;102469.19;;;17.02;41.44
61554;BME280;47425;51.976;5.326;2023-02-15T10:42:01;102470.00;;;17.06;41.34
61554;BME280;47425;51.976;5.326;2023-02-15T10:44:40;102469.13;;;17.05;41.35
61554;BME280;47425;51.976;5.326;2023-02-15T10:47:17;102469.13;;;17.05;41.45
61554;BME280;47425;51.976;5.326;2023-02-15T10:49:56;102470.00;;;17.06;41.35
61554;BME280;47425;51.976;5.326;2023-02-15T10:52:35;102476.94;;;17.11;41.42
61554;BME280;47425;51.976;5.326;2023-02-15T10:55:14;102474.25;;;17.13;41.30
61554;BME280;47425;51.976;5.326;2023-02-15T10:57:59;102464.56;;;17.14;41.26
61554;BME280;47425;51.976;5.326;2023-02-15T11:00:33;102458.38;;;17.13;41.34
61554;BME280;47425;51.976;5.326;2023-02-15T11:03:17;102453.97;;;17.14;41.21
61554;BME280;47425;51.976;5.326;2023-02-15T11:06:00;102448.56;;;17.18;41.19
61554;BME280;47425;51.976;5.326;2023-02-15T11:08:31;102443.34;;;17.15;40.83
61554;BME280;47425;51.976;5.326;2023-02-15T11:11:26;102443.34;;;17.15;41.07
61554;BME280;47425;51.976;5.326;2023-02-15T11:14:02;102447.75;;;17.16;41.07
61554;BME280;47425;51.976;5.326;2023-02-15T11:16:32;102444.16;;;17.17;41.14
61554;BME280;47425;51.976;5.326;2023-02-15T11:19:05;102435.25;;;17.21;41.14
61554;BME280;47425;51.976;5.326;2023-02-15T11:21:38;102438.00;;;17.17;41.00
61554;BME280;47425;51.976;5.326;2023-02-15T11:24:11;102432.53;;;17.24;41.05
61554;BME280;47425;51.976;5.326;2023-02-15T11:26:47;102427.94;;;17.33;41.06
61554;BME280;47425;51.976;5.326;2023-02-15T11:30:00;102426.03;;;17.39;40.88
61554;BME280;47425;51.976;5.326;2023-02-15T11:32:30;102424.19;;;17.41;40.74
61554;BME280;47425;51.976;5.326;2023-02-15T11:35:01;102427.59;;;17.47;40.51
61554;BME280;47425;51.976;5.326;2023-02-15T11:37:35;102413.38;;;17.51;40.44
61554;BME280;47425;51.976;5.326;2023-02-15T11:40:06;102411.63;;;17.51;40.39
61554;BME280;47425;51.976;5.326;2023-02-15T11:42:46;102405.38;;;17.52;40.34
61554;BME280;47425;51.976;5.326;2023-02-15T11:45:21;102395.69;;;17.53;40.52
61554;BME280;47425;51.976;5.326;2023-02-15T11:47:56;102390.38;;;17.53;40.36
61554;BME280;47425;51.976;5.326;2023-02-15T11:50:28;102382.50;;;17.50;40.49
61554;BME280;47425;51.976;5.326;2023-02-15T11:53:21;102375.34;;;17.53;40.36
61554;BME280;47425;51.976;5.326;2023-02-15T11:55:54;102369.00;;;17.59;40.25
61554;BME280;47425;51.976;5.326;2023-02-15T11:58:39;102368.25;;;17.55;40.39
61554;BME280;47425;51.976;5.326;2023-02-15T12:01:20;102368.16;;;17.58;40.56
61554;BME280;47425;51.976;5.326;2023-02-15T12:03:53;102365.47;;;17.60;40.12
61554;BME280;47425;51.976;5.326;2023-02-15T12:06:51;102358.50;;;17.56;40.19
61554;BME280;47425;51.976;5.326;2023-02-15T12:09:29;102366.50;;;17.54;40.40
61554;BME280;47425;51.976;5.326;2023-02-15T12:12:30;102369.94;;;17.58;40.15
61554;BME280;47425;51.976;5.326;2023-02-15T12:15:05;102366.34;;;17.60;40.27
61554;BME280;47425;51.976;5.326;2023-02-15T12:17:38;102369.72;;;17.66;40.13
61554;BME280;47425;51.976;5.326;2023-02-15T12:20:24;102346.72;;;17.68;40.00
61554;BME280;47425;51.976;5.326;2023-02-15T12:22:58;102359.13;;;17.66;40.25
61554;BME280;47425;51.976;5.326;2023-02-15T12:25:34;102363.47;;;17.68;39.94
61554;BME280;47425;51.976;5.326;2023-02-15T12:28:21;102366.97;;;17.70;39.86
61554;BME280;47425;51.976;5.326;2023-02-15T12:30:51;102355.44;;;17.73;40.20
61554;BME280;47425;51.976;5.326;2023-02-15T12:33:24;102350.88;;;17.78;39.78
61554;BME280;47425;51.976;5.326;2023-02-15T12:35:57;102343.84;;;17.77;39.60
61554;BME280;47425;51.976;5.326;2023-02-15T12:38:42;102342.19;;;17.73;39.85
61554;BME280;47425;51.976;5.326;2023-02-15T12:41:23;102333.38;;;17.71;39.82
61554;BME280;47425;51.976;5.326;2023-02-15T12:44:33;102335.00;;;17.76;39.71
61554;BME280;47425;51.976;5.326;2023-02-15T12:47:05;102334.06;;;17.79;39.64
61554;BME280;47425;51.976;5.326;2023-02-15T12:52:27;102339.34;;;17.79;39.55
61554;BME280;47425;51.976;5.326;2023-02-15T12:55:11;102330.59;;;17.77;39.86
61554;BME280;47425;51.976;5.326;2023-02-15T13:00:32;102319.38;;;17.67;39.97
61554;BME280;47425;51.976;5.326;2023-02-15T13:03:17;102320.09;;;17.72;39.97
61554;BME280;47425;51.976;5.326;2023-02-15T13:05:56;102319.94;;;17.78;39.80
61554;BME280;47425;51.976;5.326;2023-02-15T13:08:45;102320.00;;;17.77;39.78
61554;BME280;47425;51.976;5.326;2023-02-15T13:11:19;102321.75;;;17.76;39.68
61554;BME280;47425;51.976;5.326;2023-02-15T13:14:16;102311.94;;;17.80;39.79
61554;BME280;47425;51.976;5.326;2023-02-15T13:17:03;102313.66;;;17.83;39.78
61554;BME280;47425;51.976;5.326;2023-02-15T13:19:36;102304.94;;;17.77;39.68
61554;BME280;47425;51.976;5.326;2023-02-15T13:22:16;102303.28;;;17.73;39.68
61554;BME280;47425;51.976;5.326;2023-02-15T13:24:47;102312.09;;;17.75;39.67
61554;BME280;47425;51.976;5.326;2023-02-15T13:27:21;102305.03;;;17.74;39.73
61554;BME280;47425;51.976;5.326;2023-02-15T13:30:22;102304.19;;;17.72;39.75
61554;BME280;47425;51.976;5.326;2023-02-15T13:32:56;102301.34;;;17.80;39.58
61554;BME280;47425;51.976;5.326;2023-02-15T13:35:36;102307.50;;;17.81;39.63
61554;BME280;47425;51.976;5.326;2023-02-15T13:38:30;102298.50;;;17.88;39.70
61554;BME280;47425;51.976;5.326;2023-02-15T13:41:16;102296.66;;;17.90;39.61
61554;BME280;47425;51.976;5.326;2023-02-15T13:43:55;102302.09;;;17.85;39.41
61554;BME280;47425;51.976;5.326;2023-02-15T13:46:40;102304.28;;;17.69;39.75
61554;BME280;47425;51.976;5.326;2023-02-15T13:49:21;102298.19;;;17.66;39.93
61554;BME280;47425;51.976;5.326;2023-02-15T13:51:58;102300.75;;;17.70;39.64
61554;BME280;47425;51.976;5.326;2023-02-15T13:54:42;102295.50;;;17.69;39.98
61554;BME280;47425;51.976;5.326;2023-02-15T13:57:26;102285.19;;;17.56;39.85
61554;BME280;47425;51.976;5.326;2023-02-15T14:00:02;102287.06;;;17.53;40.14
61554;BME280;47425;51.976;5.326;2023-02-15T14:05:45;102279.84;;;17.59;39.97
61554;BME280;47425;51.976;5.326;2023-02-15T14:08:25;102287.66;;;17.64;40.08
61554;BME280;47425;51.976;5.326;2023-02-15T14:11:14;102291.19;;;17.65;40.02
61554;BME280;47425;51.976;5.326;2023-02-15T14:13:54;102297.38;;;17.64;39.93
61554;BME280;47425;51.976;5.326;2023-02-15T14:16:45;102288.66;;;17.60;40.12
61554;BME280;47425;51.976;5.326;2023-02-15T14:19:21;102287.59;;;17.66;39.86
61554;BME280;47425;51.976;5.326;2023-02-15T14:22:01;102282.28;;;17.67;39.73
61554;BME280;47425;51.976;5.326;2023-02-15T14:24:37;102282.09;;;17.73;39.85
61554;BME280;47425;51.976;5.326;2023-02-15T14:27:21;102275.06;;;17.72;39.70
61554;BME280;47425;51.976;5.326;2023-02-15T14:30:10;102275.75;;;17.79;39.46
61554;BME280;47425;51.976;5.326;2023-02-15T14:32:59;102268.00;;;17.73;39.41
61554;BME280;47425;51.976;5.326;2023-02-15T14:35:44;102272.41;;;17.72;39.58